createdAt,value
2023-04-24T00:00:17.108Z,10.75
2023-04-24T00:01:16.659Z,10.74
2023-04-24T00:02:16.707Z,10.74
2023-04-24T00:03:16.547Z,10.76
2023-04-24T00:04:16.468Z,10.74
2023-04-24T00:05:17.322Z,10.76
2023-04-24T00:06:16.880Z,10.74
2023-04-24T00:07:16.425Z,10.75
2023-04-24T00:08:16.972Z,10.78
2023-04-24T00:09:16.570Z,10.72
2023-04-24T00:10:17.121Z,10.74
2023-04-24T00:11:16.678Z,10.72
2023-04-24T00:12:16.428Z,10.71
2023-04-24T00:13:16.997Z,10.70
2023-04-24T00:14:16.551Z,10.65
2023-04-24T00:15:17.082Z,10.67
2023-04-24T00:16:16.659Z,10.68
2023-04-24T00:17:17.273Z,10.68
2023-04-24T00:18:16.807Z,10.68
2023-04-24T00:19:16.381Z,10.67
2023-04-24T00:20:16.934Z,10.68
2023-04-24T00:21:16.555Z,10.65
2023-04-24T00:22:16.917Z,10.67
2023-04-24T00:23:16.498Z,10.64
2023-04-24T00:24:17.054Z,10.64
2023-04-24T00:25:16.600Z,10.61
2023-04-24T00:26:17.153Z,10.61
2023-04-24T00:27:16.708Z,10.61
2023-04-24T00:28:17.262Z,10.60
2023-04-24T00:29:16.821Z,10.62
2023-04-24T00:30:16.355Z,10.60
2023-04-24T00:31:16.903Z,10.60
2023-04-24T00:32:16.734Z,10.61
2023-04-24T00:33:16.604Z,10.64
2023-04-24T00:34:17.162Z,10.61
2023-04-24T00:35:16.706Z,10.60
2023-04-24T00:36:17.291Z,10.61
2023-04-24T00:37:16.853Z,10.60
2023-04-24T00:38:16.389Z,10.60
2023-04-24T00:39:16.942Z,10.57
2023-04-24T00:40:16.476Z,10.57
2023-04-24T00:41:17.019Z,10.57
2023-04-24T00:42:17.043Z,10.57
2023-04-24T00:43:16.591Z,10.52
2023-04-24T00:44:17.134Z,10.54
2023-04-24T00:45:16.695Z,10.55
2023-04-24T00:46:17.262Z,10.54
2023-04-24T00:47:16.868Z,10.52
2023-04-24T00:48:16.461Z,10.48
2023-04-24T00:49:17.178Z,10.49
2023-04-24T00:50:16.748Z,10.48
2023-04-24T00:51:17.282Z,10.48
2023-04-24T00:52:16.498Z,10.49
2023-04-24T00:53:17.037Z,10.45
2023-04-24T00:54:16.588Z,10.47
2023-04-24T00:55:17.126Z,10.47
2023-04-24T00:56:16.688Z,10.45
2023-04-24T00:57:17.261Z,10.44
2023-04-24T00:58:16.812Z,10.47
2023-04-24T00:59:16.355Z,10.47
2023-04-24T01:00:16.893Z,10.45
2023-04-24T01:01:16.463Z,10.45
2023-04-24T01:02:17.057Z,10.43
2023-04-24T01:03:16.803Z,10.44
2023-04-24T01:04:16.820Z,10.43
2023-04-24T01:05:16.614Z,10.41
2023-04-24T01:06:17.217Z,10.43
2023-04-24T01:07:16.770Z,10.43
2023-04-24T01:08:16.294Z,10.41
2023-04-24T01:09:16.813Z,10.47
2023-04-24T01:10:16.379Z,10.49
2023-04-24T01:11:16.942Z,10.49
2023-04-24T01:12:16.572Z,10.52
2023-04-24T01:13:17.182Z,10.54
2023-04-24T01:14:16.766Z,10.51
2023-04-24T01:15:16.331Z,10.51
2023-04-24T01:16:16.964Z,10.48
2023-04-24T01:17:16.750Z,10.52
2023-04-24T01:18:16.406Z,10.49
2023-04-24T01:19:17.024Z,10.48
2023-04-24T01:20:16.611Z,10.48
2023-04-24T01:21:17.245Z,10.45
2023-04-24T01:22:17.169Z,10.45
2023-04-24T01:23:16.777Z,10.43
2023-04-24T01:24:16.342Z,10.43
2023-04-24T01:25:16.898Z,10.41
2023-04-24T01:26:16.459Z,10.38
2023-04-24T01:27:16.999Z,10.41
2023-04-24T01:28:16.539Z,10.41
2023-04-24T01:29:17.131Z,10.40
2023-04-24T01:30:16.716Z,10.41
2023-04-24T01:31:17.299Z,10.40
2023-04-24T01:32:16.419Z,10.44
2023-04-24T01:33:16.968Z,10.45
2023-04-24T01:34:16.533Z,10.45
2023-04-24T01:35:17.114Z,10.45
2023-04-24T01:36:16.684Z,10.45
2023-04-24T01:37:17.256Z,10.47
2023-04-24T01:38:16.842Z,10.49
2023-04-24T01:39:16.400Z,10.49
2023-04-24T01:40:17.006Z,10.49
2023-04-24T01:41:16.547Z,10.48
2023-04-24T01:42:16.407Z,10.49
2023-04-24T01:43:16.954Z,10.52
2023-04-24T01:44:16.542Z,10.51
2023-04-24T01:45:17.124Z,10.51
2023-04-24T01:46:16.782Z,10.49
2023-04-24T01:47:16.410Z,10.51
2023-04-24T01:48:16.977Z,10.52
2023-04-24T01:49:16.547Z,10.52
2023-04-24T01:50:17.167Z,10.51
2023-04-24T01:51:16.700Z,10.52
2023-04-24T01:52:16.387Z,10.54
2023-04-24T01:53:16.924Z,10.54
2023-04-24T01:54:16.486Z,10.54
2023-04-24T01:55:17.066Z,10.54
2023-04-24T01:56:16.643Z,10.55
2023-04-24T01:57:17.204Z,10.54
2023-04-24T01:58:16.801Z,10.54
2023-04-24T01:59:16.366Z,10.55
2023-04-24T02:00:16.928Z,10.52
2023-04-24T02:01:16.562Z,10.52
2023-04-24T02:02:16.854Z,10.52
2023-04-24T02:03:16.655Z,10.55
2023-04-24T02:04:16.603Z,10.58
2023-04-24T02:05:16.600Z,10.58
2023-04-24T02:06:17.138Z,10.57
2023-04-24T02:07:16.714Z,10.57
2023-04-24T02:08:17.248Z,10.60
2023-04-24T02:09:16.788Z,10.60
2023-04-24T02:10:16.340Z,10.57
2023-04-24T02:11:16.892Z,10.55
2023-04-24T02:12:17.267Z,10.58
2023-04-24T02:13:16.835Z,10.54
2023-04-24T02:14:16.405Z,10.60
2023-04-24T02:15:16.978Z,10.58
2023-04-24T02:16:16.564Z,10.57
2023-04-24T02:17:17.218Z,10.57
2023-04-24T02:18:16.787Z,10.58
2023-04-24T02:19:16.338Z,10.57
2023-04-24T02:20:16.864Z,10.58
2023-04-24T02:21:16.403Z,10.58
2023-04-24T02:22:17.098Z,10.58
2023-04-24T02:23:16.693Z,10.58
2023-04-24T02:24:17.239Z,10.58
2023-04-24T02:25:16.782Z,10.55
2023-04-24T02:26:16.365Z,10.55
2023-04-24T02:27:16.901Z,10.57
2023-04-24T02:28:16.459Z,10.55
2023-04-24T02:29:17.036Z,10.55
2023-04-24T02:30:16.598Z,10.51
2023-04-24T02:31:17.237Z,10.49
2023-04-24T02:32:17.107Z,10.51
2023-04-24T02:33:16.808Z,10.51
2023-04-24T02:34:16.351Z,10.52
2023-04-24T02:35:16.941Z,10.52
2023-04-24T02:36:16.616Z,10.52
2023-04-24T02:37:17.260Z,10.49
2023-04-24T02:38:16.805Z,10.47
2023-04-24T02:39:16.342Z,10.49
2023-04-24T02:40:16.938Z,10.47
2023-04-24T02:41:16.497Z,10.44
2023-04-24T02:42:16.864Z,10.45
2023-04-24T02:43:16.427Z,10.45
2023-04-24T02:44:16.996Z,10.47
2023-04-24T02:45:16.532Z,10.45
2023-04-24T02:46:17.157Z,10.45
2023-04-24T02:47:16.902Z,10.44
2023-04-24T02:48:16.422Z,10.44
2023-04-24T02:49:16.978Z,10.44
2023-04-24T02:50:16.559Z,10.43
2023-04-24T02:51:17.128Z,10.43
2023-04-24T02:52:17.258Z,10.41
2023-04-24T02:53:16.803Z,10.38
2023-04-24T02:54:16.365Z,10.38
2023-04-24T02:55:16.911Z,10.38
2023-04-24T02:56:16.453Z,10.37
2023-04-24T02:57:16.342Z,10.34
2023-04-24T02:58:16.915Z,10.34
2023-04-24T02:59:16.484Z,10.37
2023-04-24T03:00:17.076Z,10.31
2023-04-24T03:01:16.655Z,10.31
2023-04-24T03:02:16.546Z,10.31
2023-04-24T03:03:17.417Z,10.28
2023-04-24T03:04:17.292Z,10.33
2023-04-24T03:05:17.075Z,10.31
2023-04-24T03:06:16.644Z,10.30
2023-04-24T03:07:17.208Z,10.30
2023-04-24T03:08:16.752Z,10.30
2023-04-24T03:09:17.329Z,10.27
2023-04-24T03:10:16.890Z,10.27
2023-04-24T03:11:16.469Z,10.27
2023-04-24T03:12:17.196Z,10.26
2023-04-24T03:13:16.776Z,10.24
2023-04-24T03:14:16.317Z,10.24
2023-04-24T03:15:16.914Z,10.23
2023-04-24T03:16:16.470Z,10.24
2023-04-24T03:17:17.076Z,10.23
2023-04-24T03:18:16.712Z,10.23
2023-04-24T03:19:16.404Z,10.21
2023-04-24T03:20:17.000Z,10.20
2023-04-24T03:21:16.704Z,10.21
2023-04-24T03:22:16.469Z,10.23
2023-04-24T03:23:17.071Z,10.23
2023-04-24T03:24:16.666Z,10.21
2023-04-24T03:25:17.230Z,10.19
2023-04-24T03:26:16.787Z,10.19
2023-04-24T03:27:16.353Z,10.20
2023-04-24T03:28:16.924Z,10.20
2023-04-24T03:29:16.458Z,10.17
2023-04-24T03:30:17.065Z,10.17
2023-04-24T03:31:16.631Z,10.19
2023-04-24T03:32:16.535Z,10.17
2023-04-24T03:33:17.214Z,10.17
2023-04-24T03:34:16.748Z,10.20
2023-04-24T03:35:17.319Z,10.19
2023-04-24T03:36:16.848Z,10.14
2023-04-24T03:37:16.419Z,10.14
2023-04-24T03:38:16.991Z,10.13
2023-04-24T03:39:16.534Z,10.13
2023-04-24T03:40:17.144Z,10.10
2023-04-24T03:41:16.686Z,10.10
2023-04-24T03:42:16.386Z,10.12
2023-04-24T03:43:16.939Z,10.09
2023-04-24T03:44:16.503Z,10.08
2023-04-24T03:45:17.107Z,10.09
2023-04-24T03:46:16.684Z,10.13
2023-04-24T03:47:17.262Z,10.12
2023-04-24T03:48:16.816Z,10.12
2023-04-24T03:49:16.389Z,10.10
2023-04-24T03:50:16.960Z,10.09
2023-04-24T03:51:16.520Z,10.08
2023-04-24T03:52:16.453Z,10.08
2023-04-24T03:53:16.996Z,10.09
2023-04-24T03:54:16.609Z,10.08
2023-04-24T03:55:17.185Z,10.08
2023-04-24T03:56:16.743Z,10.08
2023-04-24T03:57:17.312Z,10.03
2023-04-24T03:58:16.876Z,10.03
2023-04-24T03:59:16.421Z,10.05
2023-04-24T04:00:16.947Z,10.08
2023-04-24T04:01:16.515Z,10.06
2023-04-24T04:02:16.869Z,10.05
2023-04-24T04:03:16.790Z,10.05
2023-04-24T04:04:16.898Z,10.03
2023-04-24T04:05:16.897Z,10.03
2023-04-24T04:06:16.511Z,10.03
2023-04-24T04:07:17.073Z,10.00
2023-04-24T04:08:16.637Z,10.02
2023-04-24T04:09:17.217Z,9.98
2023-04-24T04:10:16.775Z,9.96
2023-04-24T04:11:16.320Z,9.98
2023-04-24T04:12:16.800Z,9.96
2023-04-24T04:13:16.371Z,9.95
2023-04-24T04:14:16.943Z,9.95
2023-04-24T04:15:16.488Z,9.92
2023-04-24T04:16:17.084Z,9.91
2023-04-24T04:17:16.711Z,9.92
2023-04-24T04:18:17.285Z,9.91
2023-04-24T04:19:16.934Z,9.91
2023-04-24T04:20:16.504Z,9.89
2023-04-24T04:21:17.083Z,9.89
2023-04-24T04:22:16.726Z,9.86
2023-04-24T04:23:17.280Z,9.91
2023-04-24T04:24:16.854Z,9.91
2023-04-24T04:25:16.422Z,9.88
2023-04-24T04:26:16.996Z,9.86
2023-04-24T04:27:16.536Z,9.88
2023-04-24T04:28:17.101Z,9.88
2023-04-24T04:29:18.058Z,9.89
2023-04-24T04:30:17.243Z,9.88
2023-04-24T04:31:16.857Z,9.88
2023-04-24T04:32:16.541Z,9.88
2023-04-24T04:33:17.217Z,9.86
2023-04-24T04:34:16.786Z,9.89
2023-04-24T04:35:16.352Z,9.88
2023-04-24T04:36:16.938Z,9.88
2023-04-24T04:37:16.530Z,9.91
2023-04-24T04:38:17.114Z,9.89
2023-04-24T04:39:16.691Z,9.91
2023-04-24T04:40:17.236Z,9.88
2023-04-24T04:41:16.800Z,9.86
2023-04-24T04:42:16.566Z,9.91
2023-04-24T04:43:17.106Z,9.92
2023-04-24T04:44:16.670Z,9.95
2023-04-24T04:45:17.236Z,9.92
2023-04-24T04:46:16.825Z,9.95
2023-04-24T04:47:16.510Z,9.92
2023-04-24T04:48:17.070Z,9.95
2023-04-24T04:49:16.628Z,9.95
2023-04-24T04:50:17.216Z,9.98
2023-04-24T04:51:16.834Z,9.95
2023-04-24T04:52:17.014Z,9.93
2023-04-24T04:53:16.568Z,9.96
2023-04-24T04:54:17.112Z,9.96
2023-04-24T04:55:16.670Z,9.96
2023-04-24T04:56:17.220Z,9.98
2023-04-24T04:57:16.744Z,9.98
2023-04-24T04:58:17.288Z,10.00
2023-04-24T04:59:16.839Z,9.99
2023-04-24T05:00:16.399Z,10.00
2023-04-24T05:01:17.022Z,10.05
2023-04-24T05:02:16.844Z,10.06
2023-04-24T05:03:20.991Z,10.05
2023-04-24T05:04:16.538Z,10.06
2023-04-24T05:05:16.652Z,10.02
2023-04-24T05:06:16.383Z,10.05
2023-04-24T05:07:16.963Z,10.09
2023-04-24T05:08:26.183Z,10.10
2023-04-24T05:09:16.388Z,10.10
2023-04-24T05:10:16.950Z,10.13
2023-04-24T05:11:16.505Z,10.17
2023-04-24T05:12:16.521Z,10.16
2023-04-24T05:13:19.131Z,10.19
2023-04-24T05:14:17.262Z,10.20
2023-04-24T05:15:16.816Z,10.23
2023-04-24T05:16:16.460Z,10.20
2023-04-24T05:17:17.274Z,10.21
2023-04-24T05:18:17.003Z,10.23
2023-04-24T05:19:16.598Z,10.23
2023-04-24T05:20:17.169Z,10.24
2023-04-24T05:21:16.721Z,10.23
2023-04-24T05:22:16.828Z,10.21
2023-04-24T05:23:16.411Z,10.28
2023-04-24T05:24:16.943Z,10.26
2023-04-24T05:25:16.494Z,10.28
2023-04-24T05:26:17.032Z,10.24
2023-04-24T05:27:16.598Z,10.27
2023-04-24T05:28:17.185Z,10.28
2023-04-24T05:29:16.742Z,10.31
2023-04-24T05:30:16.350Z,10.28
2023-04-24T05:31:16.923Z,10.34
2023-04-24T05:32:17.086Z,10.38
2023-04-24T05:33:16.641Z,10.40
2023-04-24T05:34:17.254Z,10.37
2023-04-24T05:35:16.800Z,10.38
2023-04-24T05:36:16.324Z,10.44
2023-04-24T05:37:16.881Z,10.48
2023-04-24T05:38:16.440Z,10.52
2023-04-24T05:39:17.003Z,10.49
2023-04-24T05:40:16.544Z,10.49
2023-04-24T05:41:17.146Z,10.52
2023-04-24T05:42:17.150Z,10.48
2023-04-24T05:43:16.681Z,10.51
2023-04-24T05:44:17.284Z,10.52
2023-04-24T05:45:16.831Z,10.57
2023-04-24T05:46:16.411Z,10.52
2023-04-24T05:47:16.993Z,10.55
2023-04-24T05:48:16.565Z,10.58
2023-04-24T05:49:17.132Z,10.62
2023-04-24T05:50:16.685Z,10.62
2023-04-24T05:51:17.251Z,10.64
2023-04-24T05:52:17.225Z,10.67
2023-04-24T05:53:16.764Z,10.68
2023-04-24T05:54:17.300Z,10.71
2023-04-24T05:55:16.825Z,10.74
2023-04-24T05:56:16.391Z,10.75
2023-04-24T05:57:16.985Z,10.76
2023-04-24T05:58:16.621Z,10.74
2023-04-24T05:59:17.198Z,10.75
2023-04-24T06:00:16.764Z,10.78
2023-04-24T06:01:16.343Z,10.74
2023-04-24T06:02:17.298Z,10.79
2023-04-24T06:03:17.239Z,10.82
2023-04-24T06:04:17.342Z,10.81
2023-04-24T06:05:17.334Z,10.83
2023-04-24T06:06:17.143Z,10.88
2023-04-24T06:07:16.719Z,10.85
2023-04-24T06:08:17.305Z,10.89
2023-04-24T06:09:16.879Z,10.92
2023-04-24T06:10:16.469Z,10.99
2023-04-24T06:11:17.021Z,10.96
2023-04-24T06:12:16.369Z,11.02
2023-04-24T06:13:16.936Z,11.03
2023-04-24T06:14:16.470Z,11.04
2023-04-24T06:15:17.019Z,11.04
2023-04-24T06:16:16.602Z,11.07
2023-04-24T06:17:17.212Z,11.11
2023-04-24T06:18:16.780Z,11.07
2023-04-24T06:19:16.349Z,11.07
2023-04-24T06:20:16.932Z,11.11
2023-04-24T06:21:16.471Z,11.09
2023-04-24T06:22:16.917Z,11.11
2023-04-24T06:23:16.492Z,11.10
2023-04-24T06:24:17.127Z,11.07
2023-04-24T06:25:16.868Z,11.06
2023-04-24T06:26:16.424Z,11.06
2023-04-24T06:27:16.978Z,11.07
2023-04-24T06:28:16.557Z,11.11
2023-04-24T06:29:17.116Z,11.10
2023-04-24T06:30:16.717Z,11.07
2023-04-24T06:31:17.263Z,11.06
2023-04-24T06:32:17.133Z,11.11
2023-04-24T06:33:20.672Z,11.13
2023-04-24T06:34:17.254Z,11.11
2023-04-24T06:35:16.808Z,11.13
2023-04-24T06:36:16.356Z,11.11
2023-04-24T06:37:16.956Z,11.10
2023-04-24T06:38:16.511Z,11.07
2023-04-24T06:39:17.088Z,11.07
2023-04-24T06:40:16.643Z,11.04
2023-04-24T06:41:17.247Z,11.03
2023-04-24T06:42:16.851Z,11.04
2023-04-24T06:43:16.398Z,11.03
2023-04-24T06:44:16.950Z,11.07
2023-04-24T06:45:16.522Z,11.11
2023-04-24T06:46:17.110Z,11.11
2023-04-24T06:47:16.768Z,11.17
2023-04-24T06:48:16.320Z,11.23
2023-04-24T06:49:16.918Z,11.23
2023-04-24T06:50:16.724Z,11.24
2023-04-24T06:51:17.293Z,11.28
2023-04-24T06:52:16.437Z,11.23
2023-04-24T06:53:17.014Z,11.18
2023-04-24T06:54:16.611Z,11.27
2023-04-24T06:55:17.187Z,11.26
2023-04-24T06:56:16.742Z,11.30
2023-04-24T06:57:17.301Z,11.35
2023-04-24T06:58:16.841Z,11.37
2023-04-24T06:59:16.391Z,11.37
2023-04-24T07:00:16.961Z,11.44
2023-04-24T07:01:16.581Z,11.57
2023-04-24T07:02:17.048Z,11.57
2023-04-24T07:03:16.941Z,11.57
2023-04-24T07:04:16.852Z,11.50
2023-04-24T07:05:16.839Z,11.57
2023-04-24T07:06:16.440Z,11.58
2023-04-24T07:07:16.993Z,11.57
2023-04-24T07:08:16.579Z,11.57
2023-04-24T07:09:17.201Z,11.57
2023-04-24T07:10:16.865Z,11.65
2023-04-24T07:11:16.411Z,11.72
2023-04-24T07:12:17.272Z,11.65
2023-04-24T07:13:16.825Z,11.75
2023-04-24T07:14:16.358Z,11.85
2023-04-24T07:15:16.927Z,11.88
2023-04-24T07:16:16.523Z,12.17
2023-04-24T07:17:17.201Z,12.21
2023-04-24T07:18:16.783Z,12.23
2023-04-24T07:19:16.333Z,12.21
2023-04-24T07:20:16.921Z,11.94
2023-04-24T07:21:16.508Z,11.94
2023-04-24T07:22:16.311Z,12.10
2023-04-24T07:23:16.862Z,12.30
2023-04-24T07:24:16.431Z,12.35
2023-04-24T07:25:17.017Z,12.30
2023-04-24T07:26:16.565Z,12.23
2023-04-24T07:27:17.116Z,12.24
2023-04-24T07:28:16.666Z,12.41
2023-04-24T07:29:17.249Z,12.30
2023-04-24T07:30:16.904Z,12.27
2023-04-24T07:31:16.494Z,12.35
2023-04-24T07:32:16.503Z,12.59
2023-04-24T07:33:17.401Z,12.38
2023-04-24T07:34:17.055Z,12.32
2023-04-24T07:35:16.614Z,12.17
2023-04-24T07:36:17.168Z,12.21
2023-04-24T07:37:16.739Z,12.03
2023-04-24T07:38:17.287Z,12.04
2023-04-24T07:39:16.859Z,12.01
2023-04-24T07:40:16.392Z,12.13
2023-04-24T07:41:16.940Z,12.14
2023-04-24T07:42:16.883Z,12.17
2023-04-24T07:43:16.441Z,12.14
2023-04-24T07:44:17.048Z,12.17
2023-04-24T07:45:16.618Z,12.32
2023-04-24T07:46:17.187Z,12.51
2023-04-24T07:47:16.898Z,12.41
2023-04-24T07:48:16.512Z,12.21
2023-04-24T07:49:18.478Z,11.99
2023-04-24T07:50:16.555Z,11.93
2023-04-24T07:51:17.085Z,11.97
2023-04-24T07:52:16.903Z,11.99
2023-04-24T07:53:16.461Z,12.35
2023-04-24T07:54:17.037Z,12.53
2023-04-24T07:55:16.593Z,12.56
2023-04-24T07:56:17.166Z,13.04
2023-04-24T07:57:16.708Z,13.43
2023-04-24T07:58:17.277Z,13.77
2023-04-24T07:59:16.873Z,14.03
2023-04-24T08:00:16.461Z,14.17
2023-04-24T08:01:17.029Z,14.24
2023-04-24T08:02:16.692Z,15.25
2023-04-24T08:03:17.386Z,15.46
2023-04-24T08:04:17.327Z,15.39
2023-04-24T08:05:17.246Z,15.39
2023-04-24T08:06:17.149Z,15.29
2023-04-24T08:07:16.714Z,15.53
2023-04-24T08:08:17.291Z,15.57
2023-04-24T08:09:16.847Z,15.15
2023-04-24T08:10:16.404Z,15.02
2023-04-24T08:11:16.985Z,15.87
2023-04-24T08:12:16.822Z,15.90
2023-04-24T08:13:16.386Z,15.56
2023-04-24T08:14:16.963Z,15.27
2023-04-24T08:15:16.579Z,15.10
2023-04-24T08:16:17.214Z,15.07
2023-04-24T08:17:16.784Z,14.69
2023-04-24T08:18:16.361Z,13.98
2023-04-24T08:19:17.035Z,13.45
2023-04-24T08:20:16.638Z,13.43
2023-04-24T08:21:17.230Z,13.43
2023-04-24T08:22:16.598Z,13.41
2023-04-24T08:23:17.174Z,13.39
2023-04-24T08:24:16.732Z,13.39
2023-04-24T08:25:17.300Z,13.53
2023-04-24T08:26:16.858Z,13.43
2023-04-24T08:27:16.426Z,13.35
2023-04-24T08:28:17.334Z,13.21
2023-04-24T08:29:16.980Z,13.22
2023-04-24T08:30:16.551Z,13.25
2023-04-24T08:31:17.088Z,13.41
2023-04-24T08:32:17.295Z,13.30
2023-04-24T08:33:16.832Z,13.20
2023-04-24T08:34:16.383Z,13.08
2023-04-24T08:35:16.972Z,13.06
2023-04-24T08:36:16.532Z,13.07
2023-04-24T08:37:17.107Z,13.20
2023-04-24T08:38:16.658Z,13.15
2023-04-24T08:39:17.209Z,13.06
2023-04-24T08:40:16.755Z,12.92
2023-04-24T08:41:16.335Z,12.75
2023-04-24T08:42:16.852Z,12.62
2023-04-24T08:43:16.415Z,12.69
2023-04-24T08:44:17.041Z,12.47
2023-04-24T08:45:16.705Z,12.45
2023-04-24T08:46:17.300Z,12.45
2023-04-24T08:47:17.032Z,12.60
2023-04-24T08:48:23.755Z,12.68
2023-04-24T08:49:16.378Z,12.80
2023-04-24T08:50:17.021Z,12.99
2023-04-24T08:51:16.608Z,13.10
2023-04-24T08:52:17.094Z,13.13
2023-04-24T08:53:16.648Z,12.99
2023-04-24T08:54:17.206Z,12.73
2023-04-24T08:55:16.799Z,12.56
2023-04-24T08:56:16.350Z,12.65
2023-04-24T08:57:16.884Z,12.80
2023-04-24T08:58:16.403Z,12.83
2023-04-24T08:59:16.927Z,12.82
2023-04-24T09:00:16.460Z,12.72
2023-04-24T09:01:17.017Z,12.73
2023-04-24T09:02:17.042Z,12.73
2023-04-24T09:03:17.102Z,12.66
2023-04-24T09:04:16.777Z,12.73
2023-04-24T09:05:17.045Z,12.76
2023-04-24T09:06:16.637Z,12.76
2023-04-24T09:07:17.250Z,12.86
2023-04-24T09:08:16.844Z,12.68
2023-04-24T09:09:16.384Z,12.66
2023-04-24T09:10:16.929Z,12.75
2023-04-24T09:11:16.492Z,12.53
2023-04-24T09:12:16.991Z,12.58
2023-04-24T09:13:16.536Z,12.52
2023-04-24T09:14:17.074Z,12.63
2023-04-24T09:15:16.665Z,12.70
2023-04-24T09:16:17.255Z,12.73
2023-04-24T09:17:16.870Z,12.86
2023-04-24T09:18:16.420Z,12.88
2023-04-24T09:19:17.015Z,13.02
2023-04-24T09:20:16.578Z,13.89
2023-04-24T09:21:17.125Z,14.15
2023-04-24T09:22:17.040Z,14.35
2023-04-24T09:23:16.571Z,14.10
2023-04-24T09:24:17.119Z,14.00
2023-04-24T09:25:16.687Z,14.03
2023-04-24T09:26:17.269Z,13.79
2023-04-24T09:27:16.831Z,13.86
2023-04-24T09:28:16.397Z,13.66
2023-04-24T09:29:16.927Z,13.55
2023-04-24T09:30:16.563Z,13.39
2023-04-24T09:31:17.171Z,13.25
2023-04-24T09:32:17.116Z,13.15
2023-04-24T09:33:16.736Z,13.14
2023-04-24T09:34:16.375Z,13.07
2023-04-24T09:35:16.950Z,12.80
2023-04-24T09:36:16.532Z,13.00
2023-04-24T09:37:17.059Z,13.14
2023-04-24T09:38:16.604Z,13.28
2023-04-24T09:39:17.146Z,13.65
2023-04-24T09:40:16.796Z,13.56
2023-04-24T09:41:16.447Z,13.58
2023-04-24T09:42:16.845Z,13.70
2023-04-24T09:43:16.424Z,13.35
2023-04-24T09:44:16.997Z,13.25
2023-04-24T09:45:16.598Z,13.53
2023-04-24T09:46:17.222Z,13.63
2023-04-24T09:47:16.853Z,13.63
2023-04-24T09:48:16.404Z,13.50
2023-04-24T09:49:16.965Z,13.41
2023-04-24T09:50:16.897Z,13.39
2023-04-24T09:51:17.192Z,13.25
2023-04-24T09:52:17.075Z,13.24
2023-04-24T09:53:16.647Z,13.11
2023-04-24T09:54:17.217Z,13.14
2023-04-24T09:55:16.771Z,13.13
2023-04-24T09:56:17.312Z,12.90
2023-04-24T09:57:16.878Z,12.90
2023-04-24T09:58:16.439Z,12.94
2023-04-24T09:59:17.013Z,12.92
2023-04-24T10:00:16.628Z,12.93
2023-04-24T10:01:16.327Z,12.99
2023-04-24T10:02:16.987Z,12.92
2023-04-24T10:03:16.658Z,13.52
2023-04-24T10:04:16.432Z,13.58
2023-04-24T10:05:17.001Z,13.52
2023-04-24T10:06:16.547Z,14.62
2023-04-24T10:07:17.120Z,14.51
2023-04-24T10:08:16.713Z,14.56
2023-04-24T10:09:17.295Z,14.59
2023-04-24T10:10:16.913Z,14.88
2023-04-24T10:11:16.636Z,15.18
2023-04-24T10:12:17.116Z,14.84
2023-04-24T10:13:16.748Z,15.23
2023-04-24T10:14:16.355Z,15.34
2023-04-24T10:15:16.933Z,15.05
2023-04-24T10:16:16.539Z,15.15
2023-04-24T10:17:17.249Z,15.22
2023-04-24T10:18:16.882Z,15.29
2023-04-24T10:19:16.472Z,15.43
2023-04-24T10:20:17.049Z,15.41
2023-04-24T10:21:16.606Z,14.84
2023-04-24T10:22:16.355Z,14.60
2023-04-24T10:23:16.910Z,14.53
2023-04-24T10:24:16.437Z,14.14
2023-04-24T10:25:17.022Z,13.98
2023-04-24T10:26:16.590Z,13.87
2023-04-24T10:27:17.128Z,13.67
2023-04-24T10:28:16.722Z,13.53
2023-04-24T10:29:17.294Z,13.38
2023-04-24T10:30:16.933Z,13.14
2023-04-24T10:31:16.532Z,13.25
2023-04-24T10:32:16.609Z,13.30
2023-04-24T10:33:17.176Z,13.10
2023-04-24T10:34:16.754Z,13.31
2023-04-24T10:35:17.339Z,13.15
2023-04-24T10:36:16.943Z,13.34
2023-04-24T10:37:16.528Z,14.03
2023-04-24T10:38:17.103Z,13.52
2023-04-24T10:39:16.900Z,13.34
2023-04-24T10:40:16.639Z,13.21
2023-04-24T10:41:17.243Z,13.15
2023-04-24T10:42:17.269Z,13.32
2023-04-24T10:43:16.931Z,13.37
2023-04-24T10:44:16.474Z,13.14
2023-04-24T10:45:17.033Z,13.00
2023-04-24T10:46:16.613Z,12.94
2023-04-24T10:47:17.210Z,12.83
2023-04-24T10:48:16.790Z,12.90
2023-04-24T10:49:16.452Z,12.97
2023-04-24T10:50:17.016Z,13.03
2023-04-24T10:51:16.579Z,12.87
2023-04-24T10:52:16.399Z,12.92
2023-04-24T10:53:16.958Z,12.90
2023-04-24T10:54:16.535Z,12.86
2023-04-24T10:55:17.095Z,12.86
2023-04-24T10:56:16.639Z,13.04
2023-04-24T10:57:17.226Z,13.20
2023-04-24T10:58:16.813Z,13.22
2023-04-24T10:59:16.384Z,13.30
2023-04-24T11:00:16.967Z,13.41
2023-04-24T11:01:16.594Z,13.22
2023-04-24T11:02:17.348Z,13.31
2023-04-24T11:03:17.052Z,13.27
2023-04-24T11:04:17.145Z,12.94
2023-04-24T11:05:16.855Z,12.80
2023-04-24T11:06:16.431Z,12.70
2023-04-24T11:07:16.996Z,12.83
2023-04-24T11:08:16.561Z,12.99
2023-04-24T11:09:17.123Z,12.96
2023-04-24T11:10:16.766Z,13.03
2023-04-24T11:11:16.336Z,13.03
2023-04-24T11:12:17.005Z,12.97
2023-04-24T11:13:16.563Z,13.13
2023-04-24T11:14:17.304Z,13.02
2023-04-24T11:15:16.910Z,13.11
2023-04-24T11:16:16.555Z,13.07
2023-04-24T11:17:17.248Z,13.03
2023-04-24T11:18:16.800Z,13.03
2023-04-24T11:19:16.478Z,13.00
2023-04-24T11:20:26.487Z,13.21
2023-04-24T11:21:16.961Z,13.21
2023-04-24T11:22:16.740Z,13.55
2023-04-24T11:23:17.305Z,13.62
2023-04-24T11:24:16.898Z,13.65
2023-04-24T11:25:16.469Z,13.96
2023-04-24T11:26:17.047Z,14.59
2023-04-24T11:27:16.618Z,14.17
2023-04-24T11:28:17.210Z,14.14
2023-04-24T11:29:17.967Z,14.03
2023-04-24T11:30:16.912Z,13.89
2023-04-24T11:31:16.436Z,13.90
2023-04-24T11:32:16.985Z,13.65
2023-04-24T11:33:16.856Z,13.90
2023-04-24T11:34:16.576Z,13.96
2023-04-24T11:35:17.131Z,13.77
2023-04-24T11:36:16.718Z,13.76
2023-04-24T11:37:17.284Z,13.77
2023-04-24T11:38:23.875Z,13.73
2023-04-24T11:39:16.669Z,13.63
2023-04-24T11:40:17.291Z,13.42
2023-04-24T11:41:16.942Z,13.35
2023-04-24T11:42:16.707Z,13.22
2023-04-24T11:43:17.288Z,13.04
2023-04-24T11:44:16.839Z,13.04
2023-04-24T11:45:16.410Z,12.82
2023-04-24T11:46:17.074Z,12.66
2023-04-24T11:47:16.803Z,12.59
2023-04-24T11:48:16.395Z,12.72
2023-04-24T11:49:16.995Z,12.70
2023-04-24T11:50:16.589Z,12.60
2023-04-24T11:51:17.149Z,12.55
2023-04-24T11:52:16.871Z,12.52
2023-04-24T11:53:16.694Z,12.56
2023-04-24T11:54:17.278Z,12.56
2023-04-24T11:55:16.917Z,12.37
2023-04-24T11:56:16.498Z,12.37
2023-04-24T11:57:17.041Z,12.35
2023-04-24T11:58:16.596Z,12.47
2023-04-24T11:59:17.159Z,12.52
2023-04-24T12:00:16.731Z,12.63
2023-04-24T12:01:16.344Z,12.76
2023-04-24T12:02:16.640Z,12.90
2023-04-24T12:03:16.478Z,12.76
2023-04-24T12:05:16.508Z,12.73
2023-04-24T12:06:16.804Z,12.82
2023-04-24T12:07:16.512Z,12.82
2023-04-24T12:08:17.066Z,12.87
2023-04-24T12:09:18.365Z,13.07
2023-04-24T12:10:17.241Z,12.94
2023-04-24T12:11:16.840Z,12.87
2023-04-24T12:12:16.664Z,12.86
2023-04-24T12:13:17.213Z,12.99
2023-04-24T12:14:16.764Z,12.99
2023-04-24T12:15:17.307Z,13.11
2023-04-24T12:16:17.007Z,13.22
2023-04-24T12:17:16.793Z,13.08
2023-04-24T12:18:16.412Z,13.25
2023-04-24T12:19:17.036Z,13.27
2023-04-24T12:20:16.563Z,13.25
2023-04-24T12:21:17.186Z,13.24
2023-04-24T12:22:16.664Z,13.31
2023-04-24T12:23:17.233Z,13.38
2023-04-24T12:24:16.787Z,13.58
2023-04-24T12:25:16.352Z,13.49
2023-04-24T12:26:16.899Z,13.52
2023-04-24T12:27:16.447Z,13.34
2023-04-24T12:28:17.032Z,13.49
2023-04-24T12:29:16.577Z,13.48
2023-04-24T12:30:17.138Z,13.42
2023-04-24T12:31:16.782Z,13.30
2023-04-24T12:32:17.343Z,13.17
2023-04-24T12:33:16.897Z,13.03
2023-04-24T12:34:16.531Z,13.02
2023-04-24T12:35:17.105Z,13.10
2023-04-24T12:36:16.677Z,13.13
2023-04-24T12:37:17.309Z,13.13
2023-04-24T12:38:16.905Z,13.25
2023-04-24T12:39:16.509Z,13.31
2023-04-24T12:40:17.082Z,13.41
2023-04-24T12:41:16.623Z,13.59
2023-04-24T12:42:16.642Z,13.53
2023-04-24T12:43:17.202Z,13.31
2023-04-24T12:44:16.911Z,13.14
2023-04-24T12:45:16.476Z,13.24
2023-04-24T12:46:18.073Z,13.20
2023-04-24T12:47:16.633Z,13.07
2023-04-24T12:48:17.396Z,12.92
2023-04-24T12:49:17.108Z,12.87
2023-04-24T12:50:16.717Z,12.84
2023-04-24T12:51:17.292Z,12.79
2023-04-24T12:52:16.420Z,12.93
2023-04-24T12:53:16.991Z,12.94
2023-04-24T12:54:16.557Z,12.90
2023-04-24T12:55:17.167Z,12.86